createdAt,value
2019-04-10T00:00:25.079Z,46.07
2019-04-10T00:02:55.558Z,48.17
2019-04-10T00:05:25.579Z,48.53
2019-04-10T00:07:55.477Z,51.63
2019-04-10T00:10:24.967Z,49.07
2019-04-10T00:12:54.451Z,48.73
2019-04-10T00:15:24.337Z,48.50
2019-04-10T00:17:53.690Z,47.30
2019-04-10T00:20:23.103Z,50.07
2019-04-10T00:22:52.777Z,48.93
2019-04-10T00:25:22.181Z,51.60
2019-04-10T00:27:52.695Z,50.30
2019-04-10T00:30:22.058Z,48.53
2019-04-10T00:32:52.291Z,50.70
2019-04-10T00:35:21.782Z,49.20
2019-04-10T00:37:51.308Z,48.77
2019-04-10T00:40:21.436Z,48.80
2019-04-10T00:42:51.611Z,50.40
2019-04-10T00:45:21.627Z,47.73
2019-04-10T00:47:51.158Z,50.50
2019-04-10T00:50:20.484Z,49.60
2019-04-10T00:52:49.821Z,49.47
2019-04-10T00:55:19.713Z,50.83
2019-04-10T00:57:51.901Z,51.13
2019-04-10T01:00:22.094Z,53.10
2019-04-10T01:02:53.347Z,52.07
2019-04-10T01:05:22.953Z,52.17
2019-04-10T01:07:52.322Z,52.83
2019-04-10T01:10:22.019Z,52.43
2019-04-10T01:12:52.369Z,54.83
2019-04-10T01:15:22.638Z,55.40
2019-04-10T01:17:52.823Z,53.73
2019-04-10T01:20:22.171Z,59.60
2019-04-10T01:22:51.876Z,59.47
2019-04-10T01:25:22.067Z,58.33
2019-04-10T01:27:52.193Z,67.23
2019-04-10T01:30:22.242Z,65.50
2019-04-10T01:32:52.321Z,68.37
2019-04-10T01:35:22.432Z,68.07
2019-04-10T01:37:56.238Z,76.67
2019-04-10T01:40:23.368Z,83.33
2019-04-10T01:43:02.560Z,86.07
2019-04-10T01:45:25.051Z,84.57
2019-04-10T01:47:55.328Z,92.07
2019-04-10T01:50:24.784Z,96.27
2019-04-10T01:52:54.131Z,105.30
2019-04-10T01:55:27.247Z,99.50
2019-04-10T01:57:54.885Z,107.73
2019-04-10T02:00:29.856Z,99.17
2019-04-10T02:03:01.182Z,103.23
2019-04-10T02:05:32.454Z,113.27
2019-04-10T02:08:08.641Z,106.40
2019-04-10T02:10:32.878Z,110.90
2019-04-10T02:13:03.227Z,111.97
2019-04-10T02:15:32.589Z,116.47
2019-04-10T02:18:01.948Z,122.27
2019-04-10T02:20:31.377Z,110.40
2019-04-10T02:23:01.679Z,119.37
2019-04-10T02:25:31.141Z,119.00
2019-04-10T02:28:00.660Z,126.00
2019-04-10T02:30:30.479Z,123.17
2019-04-10T02:33:02.041Z,121.80
2019-04-10T02:35:31.559Z,125.37
2019-04-10T02:38:24.487Z,125.60
2019-04-10T02:40:33.185Z,121.20
2019-04-10T02:43:03.304Z,126.00
2019-04-10T02:45:34.525Z,129.93
2019-04-10T02:48:05.892Z,122.80
2019-04-10T02:50:35.455Z,125.70
2019-04-10T02:53:05.570Z,124.33
2019-04-10T02:55:35.734Z,120.20
2019-04-10T02:58:06.099Z,128.23
2019-04-10T03:00:36.084Z,118.40
2019-04-10T03:03:06.365Z,121.17
2019-04-10T03:05:36.352Z,121.63
2019-04-10T03:08:07.028Z,120.40
2019-04-10T03:10:44.459Z,125.80
2019-04-10T03:13:09.046Z,124.33
2019-04-10T03:15:39.261Z,123.33
2019-04-10T03:18:08.736Z,126.33
2019-04-10T03:20:38.466Z,120.23
2019-04-10T03:23:07.911Z,122.97
2019-04-10T03:25:37.255Z,117.77
2019-04-10T03:28:07.205Z,124.40
2019-04-10T03:30:39.401Z,122.43
2019-04-10T03:33:14.193Z,123.37
2019-04-10T03:35:45.449Z,123.20
2019-04-10T03:38:16.214Z,126.50
2019-04-10T03:40:45.867Z,119.43
2019-04-10T03:43:15.185Z,119.90
2019-04-10T03:45:44.555Z,121.63
2019-04-10T03:48:13.930Z,120.70
2019-04-10T03:50:43.687Z,126.10
2019-04-10T03:53:14.024Z,121.33
2019-04-10T03:55:43.491Z,119.60
2019-04-10T03:58:13.484Z,121.93
2019-04-10T04:00:42.863Z,123.40
2019-04-10T04:03:12.771Z,117.87
2019-04-10T04:05:42.542Z,116.50
2019-04-10T04:08:13.068Z,123.97
2019-04-10T04:10:42.688Z,120.13
2019-04-10T04:13:12.270Z,119.63
2019-04-10T04:15:42.149Z,116.00
2019-04-10T04:18:11.458Z,116.77
2019-04-10T04:20:41.264Z,116.17
2019-04-10T04:23:11.645Z,126.27
2019-04-10T04:25:40.929Z,124.97
2019-04-10T04:28:11.295Z,117.60
2019-04-10T04:30:40.710Z,118.97
2019-04-10T04:33:10.826Z,121.27
2019-04-10T04:35:40.822Z,126.47
2019-04-10T04:38:11.317Z,122.23
2019-04-10T04:40:40.730Z,133.83
2019-04-10T04:43:10.287Z,122.03
2019-04-10T04:45:39.730Z,122.10
2019-04-10T04:48:09.849Z,128.03
2019-04-10T04:50:39.194Z,122.67
2019-04-10T04:53:08.736Z,131.07
2019-04-10T04:55:38.069Z,121.30
2019-04-10T04:58:07.661Z,127.53
2019-04-10T05:00:37.497Z,126.57
2019-04-10T05:03:07.758Z,127.60
2019-04-10T05:05:37.089Z,131.70
2019-04-10T05:08:07.371Z,128.10
2019-04-10T05:10:37.850Z,130.33
2019-04-10T05:13:08.207Z,128.93
2019-04-10T05:15:37.514Z,129.00
2019-04-10T05:18:06.868Z,124.77
2019-04-10T05:20:43.876Z,119.37
2019-04-10T05:23:08.148Z,125.40
2019-04-10T05:25:37.785Z,120.80
2019-04-10T05:28:07.811Z,123.20
2019-04-10T05:30:37.711Z,127.60
2019-04-10T05:33:08.144Z,120.67
2019-04-10T05:35:37.550Z,122.23
2019-04-10T05:38:07.955Z,120.53
2019-04-10T05:40:37.436Z,120.20
2019-04-10T05:43:06.795Z,115.13
2019-04-10T05:45:36.134Z,123.83
2019-04-10T05:48:06.696Z,116.73
2019-04-10T05:50:36.392Z,122.33
2019-04-10T05:53:05.738Z,122.67
2019-04-10T05:55:35.093Z,111.33
2019-04-10T05:58:04.997Z,117.40
2019-04-10T06:00:34.597Z,115.87
2019-04-10T06:03:04.066Z,113.97
2019-04-10T06:05:34.185Z,110.27
2019-04-10T06:08:03.673Z,110.73
2019-04-10T06:10:34.266Z,107.07
2019-04-10T06:13:03.708Z,107.27
2019-04-10T06:15:33.292Z,103.57
2019-04-10T06:18:04.960Z,103.57
2019-04-10T06:20:35.436Z,105.10
2019-04-10T06:23:05.279Z,112.10
2019-04-10T06:25:38.009Z,100.10
2019-04-10T06:28:05.754Z,101.77
2019-04-10T06:30:36.235Z,97.90
2019-04-10T06:33:05.733Z,103.30
2019-04-10T06:35:35.613Z,104.13
2019-04-10T06:38:05.002Z,97.77
2019-04-10T06:40:35.490Z,98.83
2019-04-10T06:43:05.031Z,102.37
2019-04-10T06:45:35.649Z,93.10
2019-04-10T06:48:05.074Z,101.13
2019-04-10T06:50:34.981Z,97.10
2019-04-10T06:53:04.470Z,101.40
2019-04-10T06:55:33.823Z,90.90
2019-04-10T06:58:03.159Z,99.33
2019-04-10T07:00:32.792Z,101.53
2019-04-10T07:03:03.132Z,93.27
2019-04-10T07:05:41.386Z,96.07
2019-04-10T07:08:12.155Z,101.27
2019-04-10T07:10:47.990Z,90.93
2019-04-10T07:13:13.334Z,93.77
2019-04-10T07:15:38.686Z,86.70
2019-04-10T07:18:14.454Z,86.40
2019-04-10T07:20:40.114Z,90.13
2019-04-10T07:23:09.446Z,86.20
2019-04-10T07:25:42.456Z,90.50
2019-04-10T07:28:11.955Z,84.43
2019-04-10T07:30:41.234Z,79.27
2019-04-10T07:33:14.870Z,84.80
2019-04-10T07:35:42.279Z,84.60
2019-04-10T07:38:11.877Z,84.40
2019-04-10T07:40:41.160Z,82.40
2019-04-10T07:43:11.251Z,84.03
2019-04-10T07:45:40.526Z,77.40
2019-04-10T07:48:10.739Z,83.10
2019-04-10T07:50:42.882Z,85.00
2019-04-10T07:53:11.232Z,85.97
2019-04-10T07:55:40.586Z,82.83
2019-04-10T07:58:11.003Z,89.60
2019-04-10T08:00:40.751Z,88.03
2019-04-10T08:03:10.354Z,87.17
2019-04-10T08:05:39.760Z,88.33
2019-04-10T08:08:09.098Z,92.37
2019-04-10T08:10:38.438Z,85.30
2019-04-10T08:13:08.597Z,85.63
2019-04-10T08:15:38.128Z,79.37
2019-04-10T08:18:07.477Z,84.40
2019-04-10T08:20:36.759Z,88.83
2019-04-10T08:23:07.539Z,89.23
2019-04-10T08:25:37.152Z,84.10
2019-04-10T08:28:07.247Z,85.00
2019-04-10T08:30:37.116Z,82.43
2019-04-10T08:33:07.808Z,88.53
2019-04-10T08:35:37.828Z,86.70
2019-04-10T08:38:09.684Z,85.70
2019-04-10T08:40:40.399Z,84.40
2019-04-10T08:43:09.928Z,85.73
2019-04-10T08:45:46.352Z,80.17
2019-04-10T08:48:10.322Z,83.67
2019-04-10T08:50:39.737Z,78.33
2019-04-10T08:53:11.768Z,80.83
2019-04-10T08:55:42.116Z,73.60
2019-04-10T08:58:11.480Z,78.20
2019-04-10T09:00:42.761Z,77.37
2019-04-10T09:03:12.929Z,80.13
2019-04-10T09:05:42.746Z,72.13
2019-04-10T09:08:12.828Z,76.40
2019-04-10T09:10:42.778Z,75.63
2019-04-10T09:13:12.540Z,72.27
2019-04-10T09:15:42.362Z,71.57
2019-04-10T09:18:12.819Z,72.00
2019-04-10T09:20:42.730Z,69.67
2019-04-10T09:23:28.925Z,68.90
2019-04-10T09:25:43.674Z,69.83
2019-04-10T09:28:14.028Z,71.20
2019-04-10T09:30:43.558Z,65.23
2019-04-10T09:33:20.855Z,76.00
2019-04-10T09:35:44.682Z,74.70
2019-04-10T09:38:14.632Z,68.97
2019-04-10T09:40:44.719Z,71.50
2019-04-10T09:43:14.356Z,69.13
2019-04-10T09:45:44.167Z,74.33
2019-04-10T09:48:13.530Z,69.63
2019-04-10T09:50:43.837Z,68.50
2019-04-10T09:53:13.207Z,64.73
2019-04-10T09:55:42.642Z,69.30
2019-04-10T09:58:13.031Z,68.50
2019-04-10T10:00:43.763Z,64.47
2019-04-10T10:03:13.245Z,66.57
2019-04-10T10:05:42.605Z,68.30
2019-04-10T10:08:11.958Z,70.40
2019-04-10T10:10:41.647Z,69.23
2019-04-10T10:13:11.014Z,66.80
2019-04-10T10:15:41.122Z,63.60
2019-04-10T10:18:10.996Z,65.80
2019-04-10T10:20:40.331Z,66.07
2019-04-10T10:23:15.839Z,66.93
2019-04-10T10:25:45.744Z,64.77
2019-04-10T10:28:15.379Z,60.37
2019-04-10T10:30:44.698Z,68.60
2019-04-10T10:33:15.275Z,71.60
2019-04-10T10:35:44.715Z,70.30
2019-04-10T10:38:14.812Z,70.20
2019-04-10T10:40:44.756Z,68.40
2019-04-10T10:43:14.457Z,69.27
2019-04-10T10:45:44.999Z,69.60
2019-04-10T10:48:15.605Z,67.33
2019-04-10T10:50:45.660Z,71.07
2019-04-10T10:53:15.136Z,66.17
2019-04-10T10:55:45.508Z,71.30
2019-04-10T10:58:15.419Z,67.63
2019-04-10T11:00:45.232Z,67.80
2019-04-10T11:03:14.494Z,65.37
2019-04-10T11:05:44.518Z,69.80
2019-04-10T11:08:13.924Z,63.53
2019-04-10T11:10:47.976Z,67.93
2019-04-10T11:13:15.036Z,62.53
2019-04-10T11:15:45.969Z,68.13
2019-04-10T11:18:15.852Z,64.50
2019-04-10T11:20:45.318Z,65.70
2019-04-10T11:23:14.655Z,64.53
2019-04-10T11:25:46.486Z,62.67
2019-04-10T11:28:16.297Z,65.43
2019-04-10T11:30:47.479Z,66.90
2019-04-10T11:33:17.615Z,69.33
2019-04-10T11:35:48.094Z,64.60
2019-04-10T11:38:17.633Z,68.60
2019-04-10T11:40:47.353Z,63.40
2019-04-10T11:43:16.780Z,63.87
2019-04-10T11:45:52.493Z,66.17
2019-04-10T11:48:19.934Z,67.97
2019-04-10T11:50:48.772Z,64.70
2019-04-10T11:53:19.101Z,60.30
2019-04-10T11:55:51.007Z,63.40
2019-04-10T11:58:21.567Z,62.93
2019-04-10T12:00:52.578Z,63.50
2019-04-10T12:03:22.612Z,63.53
2019-04-10T12:05:55.592Z,65.30
2019-04-10T12:13:26.181Z,61.07
2019-04-10T12:15:56.629Z,58.57
2019-04-10T12:18:26.734Z,58.53
2019-04-10T12:20:56.095Z,57.20
2019-04-10T12:23:25.443Z,57.57
2019-04-10T12:25:55.668Z,55.60
2019-04-10T12:28:25.611Z,57.73
2019-04-10T12:30:55.492Z,53.43
2019-04-10T12:33:25.448Z,55.27
2019-04-10T12:35:54.874Z,57.70
2019-04-10T12:38:24.219Z,60.40
2019-04-10T12:40:53.573Z,55.27
2019-04-10T12:43:23.194Z,56.37
2019-04-10T12:45:52.733Z,53.17
2019-04-10T12:48:23.011Z,54.43
2019-04-10T12:50:53.060Z,51.37
2019-04-10T12:53:23.297Z,53.80
2019-04-10T12:55:53.557Z,50.93
2019-04-10T12:58:22.952Z,55.53
2019-04-10T13:00:52.308Z,52.90
2019-04-10T13:03:21.642Z,52.60
2019-04-10T13:05:51.551Z,48.73
2019-04-10T13:08:25.825Z,48.20
2019-04-10T13:10:52.023Z,46.00
2019-04-10T13:13:22.089Z,48.97
2019-04-10T13:15:51.917Z,51.47
2019-04-10T13:18:21.280Z,49.73
2019-04-10T13:20:50.607Z,51.13
2019-04-10T13:23:20.513Z,49.60
2019-04-10T13:25:58.380Z,49.97
2019-04-10T13:28:21.086Z,46.73
2019-04-10T13:30:53.763Z,45.43
2019-04-10T13:33:22.549Z,44.70
2019-04-10T13:35:53.308Z,49.30
2019-04-10T13:38:31.771Z,47.63
2019-04-10T13:40:56.329Z,46.43
2019-04-10T13:43:25.777Z,47.10
2019-04-10T13:45:56.200Z,44.37
2019-04-10T13:48:25.635Z,42.67
2019-04-10T13:50:54.976Z,42.47
2019-04-10T13:53:24.309Z,42.33
2019-04-10T13:55:54.698Z,41.60
2019-04-10T13:58:26.160Z,41.27
2019-04-10T14:00:55.372Z,39.50
2019-04-10T14:03:25.925Z,40.00
2019-04-10T14:05:55.373Z,40.43
2019-04-10T14:08:40.285Z,40.83
2019-04-10T14:10:57.098Z,38.50
2019-04-10T14:13:27.602Z,39.57
2019-04-10T14:15:58.002Z,39.50
2019-04-10T14:18:27.465Z,37.17
2019-04-10T14:20:57.072Z,37.40
2019-04-10T14:23:29.804Z,37.67
2019-04-10T14:26:00.781Z,37.03
2019-04-10T14:28:31.765Z,36.20
2019-04-10T14:31:04.119Z,40.10
2019-04-10T14:33:33.629Z,37.33
2019-04-10T14:36:03.420Z,38.93
2019-04-10T14:38:32.937Z,37.97
2019-04-10T14:41:03.215Z,36.60
2019-04-10T14:43:34.262Z,37.00
2019-04-10T14:46:10.318Z,36.37
2019-04-10T14:48:42.443Z,37.97
2019-04-10T14:51:14.484Z,37.63
2019-04-10T14:53:43.911Z,36.33
2019-04-10T14:56:13.781Z,38.33
2019-04-10T14:58:44.573Z,34.13
2019-04-10T15:01:14.033Z,36.37
2019-04-10T15:03:44.475Z,34.73
2019-04-10T15:06:13.897Z,35.00
2019-04-10T15:08:43.918Z,35.30
2019-04-10T15:11:14.150Z,35.60
2019-04-10T15:13:43.579Z,35.40
2019-04-10T15:16:13.044Z,36.00
2019-04-10T15:18:43.724Z,35.67
2019-04-10T15:21:14.395Z,37.00
2019-04-10T15:23:44.735Z,34.93
2019-04-10T15:26:14.078Z,35.77
2019-04-10T15:28:43.680Z,36.97
2019-04-10T15:31:13.097Z,36.97
2019-04-10T15:33:42.340Z,35.77
2019-04-10T15:36:11.697Z,38.23
2019-04-10T15:38:41.973Z,37.53
2019-04-10T15:41:12.055Z,37.67
2019-04-10T15:43:45.522Z,36.40
2019-04-10T15:46:17.155Z,37.53
2019-04-10T15:48:47.199Z,35.57
2019-04-10T15:51:16.564Z,36.70
2019-04-10T15:53:47.304Z,36.13
2019-04-10T15:56:18.884Z,37.90
2019-04-10T15:58:47.961Z,35.10
2019-04-10T16:01:21.667Z,35.23
2019-04-10T16:03:54.751Z,35.57
2019-04-10T16:06:26.507Z,34.97
2019-04-10T16:08:57.259Z,37.13
2019-04-10T16:11:45.878Z,34.70
2019-04-10T16:14:22.565Z,35.57
2019-04-10T16:16:57.651Z,35.00
2019-04-10T16:19:34.633Z,35.20
2019-04-10T16:22:06.633Z,34.97
2019-04-10T16:24:36.642Z,36.83
2019-04-10T16:27:06.277Z,37.13
2019-04-10T16:29:36.500Z,36.53
2019-04-10T16:32:08.425Z,36.17
2019-04-10T16:34:38.838Z,38.93
2019-04-10T16:37:08.453Z,36.50
2019-04-10T16:39:38.308Z,38.20
2019-04-10T16:42:08.594Z,38.37
2019-04-10T16:44:39.139Z,38.63
2019-04-10T16:47:08.624Z,37.87
2019-04-10T16:49:39.135Z,37.00
2019-04-10T16:52:09.135Z,39.47
2019-04-10T16:54:38.620Z,39.57
2019-04-10T16:57:07.977Z,39.97
2019-04-10T16:59:37.595Z,43.57
2019-04-10T17:02:09.384Z,40.67
2019-04-10T17:04:39.654Z,42.87
2019-04-10T17:07:09.164Z,42.27
2019-04-10T17:09:38.751Z,41.20
2019-04-10T17:12:08.084Z,42.10
2019-04-10T17:14:39.917Z,41.73
2019-04-10T17:17:10.405Z,42.10
2019-04-10T17:19:48.857Z,44.30
2019-04-10T17:22:11.188Z,40.90
2019-04-10T17:24:41.607Z,41.57
2019-04-10T17:27:11.268Z,43.83
2019-04-10T17:29:41.104Z,41.73
2019-04-10T17:32:13.200Z,42.20
2019-04-10T17:34:43.107Z,41.90
2019-04-10T17:37:13.688Z,42.90
2019-04-10T17:39:44.966Z,43.43
2019-04-10T17:42:14.590Z,41.93
2019-04-10T17:44:44.187Z,42.60
2019-04-10T17:47:14.498Z,42.47
2019-04-10T17:49:43.970Z,41.33
2019-04-10T17:52:14.528Z,44.30
2019-04-10T17:54:45.040Z,44.33
2019-04-10T17:57:16.985Z,42.67
2019-04-10T17:59:46.932Z,42.23
2019-04-10T18:02:17.718Z,44.90
2019-04-10T18:04:48.313Z,41.70
2019-04-10T18:07:17.970Z,43.60
2019-04-10T18:09:49.184Z,40.20
2019-04-10T18:12:19.598Z,45.83
2019-04-10T18:14:49.356Z,50.00
2019-04-10T18:17:18.986Z,51.90
2019-04-10T18:19:48.575Z,46.67
2019-04-10T18:22:18.490Z,45.20
2019-04-10T18:24:48.206Z,45.13
2019-04-10T18:27:18.434Z,45.53
2019-04-10T18:29:47.951Z,41.43
2019-04-10T18:32:17.888Z,43.17
2019-04-10T18:34:47.674Z,42.50
2019-04-10T18:37:19.879Z,44.40
2019-04-10T18:39:48.796Z,44.83
2019-04-10T18:42:19.334Z,46.43
2019-04-10T18:44:49.125Z,44.73
2019-04-10T18:47:18.725Z,43.97
2019-04-10T18:49:48.283Z,44.30
2019-04-10T18:52:17.879Z,43.70
2019-04-10T18:54:47.938Z,42.37
2019-04-10T18:57:17.817Z,43.60
2019-04-10T19:00:04.073Z,43.03
2019-04-10T19:02:37.320Z,41.57
2019-04-10T19:05:12.028Z,42.57
2019-04-10T19:07:42.805Z,43.53
2019-04-10T19:10:14.319Z,44.60
2019-04-10T19:12:43.994Z,42.20
2019-04-10T19:15:14.798Z,43.30
2019-04-10T19:17:44.625Z,44.20
2019-04-10T19:20:14.270Z,41.10
2019-04-10T19:22:44.667Z,45.70
2019-04-10T19:25:14.652Z,43.20
2019-04-10T19:27:44.545Z,43.33
2019-04-10T19:30:35.365Z,46.30
2019-04-10T19:33:05.861Z,43.93
2019-04-10T19:35:35.707Z,43.17
2019-04-10T19:38:05.479Z,42.47
2019-04-10T19:40:36.955Z,42.60
2019-04-10T19:43:08.308Z,42.77
2019-04-10T19:45:38.042Z,39.90
2019-04-10T19:48:08.965Z,39.83
2019-04-10T19:50:38.665Z,42.17
2019-04-10T19:53:08.984Z,40.33
2019-04-10T19:55:38.599Z,40.43
2019-04-10T19:58:08.196Z,39.07
2019-04-10T20:00:38.836Z,39.07
2019-04-10T20:03:08.542Z,41.37
2019-04-10T20:05:39.237Z,40.80
2019-04-10T20:08:09.593Z,41.50
2019-04-10T20:10:40.180Z,38.10
2019-04-10T20:13:09.764Z,40.00
2019-04-10T20:15:39.445Z,41.30
2019-04-10T20:18:09.087Z,40.20
2019-04-10T20:20:43.717Z,40.87
2019-04-10T20:23:14.177Z,40.80
2019-04-10T20:25:43.925Z,39.60
2019-04-10T20:28:14.251Z,40.87
2019-04-10T20:30:44.573Z,38.93
2019-04-10T20:33:14.682Z,39.70
2019-04-10T20:35:44.654Z,40.43
2019-04-10T20:38:15.461Z,40.00
2019-04-10T20:40:46.123Z,38.03
2019-04-10T20:43:18.553Z,38.50
2019-04-10T20:45:49.594Z,40.63
2019-04-10T20:48:20.149Z,37.97
2019-04-10T20:50:50.305Z,37.07
2019-04-10T20:53:20.020Z,38.97
2019-04-10T20:55:50.936Z,37.70
2019-04-10T20:58:20.553Z,35.60
2019-04-10T21:00:51.322Z,34.30
2019-04-10T21:03:20.888Z,33.40
2019-04-10T21:05:50.722Z,33.30
2019-04-10T21:08:20.040Z,33.37
2019-04-10T21:10:49.389Z,32.50
2019-04-10T21:13:19.089Z,33.70
2019-04-10T21:15:48.576Z,31.33
2019-04-10T21:18:17.882Z,30.13
2019-04-10T21:20:47.241Z,30.53
2019-04-10T21:23:17.210Z,31.90
2019-04-10T21:25:47.639Z,31.27
2019-04-10T21:28:18.305Z,30.40
2019-04-10T21:30:58.805Z,29.27
2019-04-10T21:33:42.948Z,30.57
2019-04-10T21:36:13.516Z,30.30
2019-04-10T21:38:43.012Z,31.43
2019-04-10T21:41:13.853Z,29.97
2019-04-10T21:43:43.566Z,28.20
2019-04-10T21:46:14.341Z,29.10
2019-04-10T21:48:43.779Z,28.90
2019-04-10T21:51:13.114Z,29.10
2019-04-10T21:53:42.440Z,29.07
2019-04-10T21:56:12.507Z,29.57
2019-04-10T21:58:41.893Z,28.53
2019-04-10T22:01:11.500Z,27.40
2019-04-10T22:03:41.483Z,27.67
2019-04-10T22:06:30.410Z,28.73
2019-04-10T22:09:20.630Z,27.60
2019-04-10T22:11:53.021Z,27.33
2019-04-10T22:14:22.383Z,27.13
2019-04-10T22:16:52.551Z,28.17
2019-04-10T22:19:22.884Z,29.03
2019-04-10T22:21:52.245Z,27.20
2019-04-10T22:24:23.502Z,28.10
2019-04-10T22:26:52.893Z,28.63
2019-04-10T22:29:22.680Z,26.27
2019-04-10T22:31:51.981Z,29.20
2019-04-10T22:34:21.415Z,27.77
2019-04-10T22:36:50.712Z,26.60
2019-04-10T22:39:20.128Z,26.13
2019-04-10T22:41:50.446Z,25.53
2019-04-10T22:44:19.858Z,24.87
2019-04-10T22:46:50.197Z,25.67
2019-04-10T22:49:20.233Z,24.20
2019-04-10T22:51:49.953Z,24.83
2019-04-10T22:54:19.902Z,26.10
2019-04-10T22:56:49.969Z,24.43
2019-04-10T22:59:19.373Z,23.97
2019-04-10T23:01:59.387Z,23.93
2019-04-10T23:04:20.161Z,24.60
2019-04-10T23:06:49.550Z,25.13
2019-04-10T23:09:20.126Z,25.00
2019-04-10T23:11:49.980Z,25.30
2019-04-10T23:14:20.665Z,22.80
2019-04-10T23:16:50.493Z,24.80
2019-04-10T23:19:20.298Z,24.13
2019-04-10T23:21:49.698Z,23.77
2019-04-10T23:24:19.124Z,23.60
2019-04-10T23:26:49.291Z,25.03
2019-04-10T23:29:18.694Z,24.67
2019-04-10T23:31:48.096Z,24.13
2019-04-10T23:34:18.763Z,23.37
2019-04-10T23:36:48.667Z,23.03
2019-04-10T23:39:21.784Z,25.20
2019-04-10T23:41:52.424Z,24.77
2019-04-10T23:44:21.829Z,23.47
2019-04-10T23:46:51.671Z,22.93
2019-04-10T23:49:21.500Z,23.00
2019-04-10T23:51:51.653Z,22.17
2019-04-10T23:54:21.511Z,23.50
2019-04-10T23:56:50.873Z,22.07
2019-04-10T23:59:20.526Z,22.60
